KELK

Elk City Regional Business Airport

Elk City, Oklahoma, USA
METAR KELK 181955Z AUTO 22013G16KT 10SM CLR 15/03 A3005 RMK AO2 T01500031
Observed Flight Rules
Dec-18 @ 19:55 UTC (34 minutes ago) Visual Flight Rules
Wind Visibility Clouds
220° at 13 knots
 Gusting to 16 knots
10 miles
  • Clear skies
Temperatures Readings
Current 15°C / 59°F
Dewpoint 3°C / 37°F
Humidity 45%
Altimeter 30.05" Hg
Pressure 1018 hPa
Elevation 610
METAR KELK 181955Z AUTO 22013G16KT 10SM CLR 15/03 A3005 RMK AO2 T01500031
Observed Flight Rules
Dec-18 @ 19:55 UTC
(34 minutes ago)
VFR
Wind Visibility
220° at 13 knots
 Gusting to 16 knots
10 miles
Clouds
  • Clear skies
Temperature Dewpoint
15°C / 59°F 3°C / 37°F
Humidity Altimeter Pressure
45% 30.05" Hg 1018 hPa